Time;durP1;ratioP1;P1;durP2;ratioP2;P2;SDS_P1;SDS_P2;PMS_P1;PMS_P2;Temp;Humidity;BMP_temperature;BMP_pressure;BME280_temperature;BME280_humidity;BME280_pressure;Samples;Min_cycle;Max_cycle;Signal;HPM_P1;HPM_P2
2023/11/06 00:01:18;;;;;;;;;;;;;;;17.20;nan;98816.66;5063179;28;19921;-89
2023/11/06 00:03:44;;;;;;;;;;;;;;;17.14;nan;98828.84;5066021;28;20346;-89
2023/11/06 00:06:09;;;;;;;;;;;;;;;17.17;nan;98827.38;5070329;28;19917;-89
2023/11/06 00:08:34;;;;;;;;;;;;;;;17.13;nan;98835.38;5069170;28;19956;-88
2023/11/06 00:11:00;;;;;;;;;;;;;;;17.18;nan;98831.66;5067259;28;19952;-89
2023/11/06 00:13:26;;;;;;;;;;;;;;;17.21;nan;98839.88;5066147;28;19928;-87
2023/11/06 00:15:51;;;;;;;;;;;;;;;17.21;nan;98849.91;5065699;28;19924;-89
2023/11/06 00:18:16;;;;;;;;;;;;;;;17.20;nan;98853.75;5069880;28;19959;-87
2023/11/06 00:20:43;;;;;;;;;;;;;;;17.21;nan;98860.75;5068523;28;19939;-89
2023/11/06 00:23:08;;;;;;;;;;;;;;;17.27;nan;98869.44;5064359;28;19923;-88
2023/11/06 00:25:33;;;;;;;;;;;;;;;17.22;nan;98862.31;5072328;28;19920;-91
2023/11/06 00:27:59;;;;;;;;;;;;;;;17.20;nan;98876.19;5065425;28;19916;-91
2023/11/06 00:30:25;;;;;;;;;;;;;;;17.19;nan;98873.81;5067485;28;19935;-90
2023/11/06 00:32:50;;;;;;;;;;;;;;;17.24;nan;98884.44;5065966;28;19924;-91
2023/11/06 00:35:16;;;;;;;;;;;;;;;17.25;nan;98882.53;5069655;28;19955;-91
2023/11/06 00:37:41;;;;;;;;;;;;;;;17.25;nan;98893.38;5066371;28;19916;-88
2023/11/06 00:40:07;;;;;;;;;;;;;;;17.21;nan;98902.13;5062669;28;20421;-90
2023/11/06 00:42:33;;;;;;;;;;;;;;;17.20;nan;98903.25;5063533;28;19931;-90
2023/11/06 00:44:58;;;;;;;;;;;;;;;17.17;nan;98903.94;5069666;28;19924;-89
2023/11/06 00:47:24;;;;;;;;;;;;;;;17.13;nan;98919.28;5068633;28;20392;-88
2023/11/06 00:49:49;;;;;;;;;;;;;;;17.08;nan;98908.66;5063239;28;19969;-90
2023/11/06 00:52:15;;;;;;;;;;;;;;;17.04;nan;98913.16;5066356;28;19931;-90
2023/11/06 00:54:40;;;;;;;;;;;;;;;17.03;nan;98914.28;5076519;28;19931;-88
2023/11/06 00:57:05;;;;;;;;;;;;;;;17.04;nan;98915.84;5067708;28;19927;-90
2023/11/06 00:59:31;;;;;;;;;;;;;;;17.01;nan;98927.34;5058165;28;19969;-90
2023/11/06 01:01:56;;;;;;;;;;;;;;;17.01;nan;98921.16;5069398;28;20015;-89
2023/11/06 01:04:21;;;;;;;;;;;;;;;17.02;nan;98923.53;5066644;28;19961;-89
2023/11/06 01:06:47;;;;;;;;;;;;;;;17.03;nan;98943.25;5072908;28;19966;-89
2023/11/06 01:09:12;;;;;;;;;;;;;;;17.00;nan;98943.91;5067345;28;20312;-89
2023/11/06 01:11:37;;;;;;;;;;;;;;;16.92;nan;98942.91;5066817;28;21560;-89
2023/11/06 01:14:03;;;;;;;;;;;;;;;16.95;nan;98939.53;5068182;28;19931;-88
2023/11/06 01:16:28;;;;;;;;;;;;;;;16.94;nan;98946.06;5067840;28;19927;-89
2023/11/06 01:18:54;;;;;;;;;;;;;;;16.96;nan;98953.84;5065137;28;20300;-90
2023/11/06 01:21:19;;;;;;;;;;;;;;;16.88;nan;98966.34;5066405;28;19916;-90
2023/11/06 01:23:44;;;;;;;;;;;;;;;16.82;nan;98975.75;5066734;28;19917;-89
2023/11/06 01:26:10;;;;;;;;;;;;;;;16.84;nan;98979.72;5067567;28;20388;-89
2023/11/06 01:28:35;;;;;;;;;;;;;;;16.82;nan;98983.88;5069852;28;20015;-88
2023/11/06 01:31:02;;;;;;;;;;;;;;;16.85;nan;98988.59;5065523;28;19924;-88
2023/11/06 01:33:28;;;;;;;;;;;;;;;16.78;nan;98985.66;5066644;28;19942;-90
2023/11/06 01:35:53;;;;;;;;;;;;;;;16.76;nan;98980.59;5065073;28;19927;-89
2023/11/06 01:38:18;;;;;;;;;;;;;;;16.78;nan;98993.78;5061083;28;19916;-88
2023/11/06 01:40:44;;;;;;;;;;;;;;;16.78;nan;99002.69;5063964;28;20008;-89
2023/11/06 01:43:09;;;;;;;;;;;;;;;16.77;nan;98994.91;5071666;28;19916;-88
2023/11/06 01:45:36;;;;;;;;;;;;;;;16.75;nan;99000.63;5065493;28;19924;-89
2023/11/06 01:48:03;;;;;;;;;;;;;;;16.76;nan;99012.25;5067082;28;19916;-88
2023/11/06 01:50:33;;;;;;;;;;;;;;;16.76;nan;99012.25;5066978;28;19943;-89
2023/11/06 01:53:01;;;;;;;;;;;;;;;16.83;nan;99017.91;5065162;28;19962;-90
2023/11/06 01:55:27;;;;;;;;;;;;;;;16.79;nan;99019.69;5067403;28;20831;-90
2023/11/06 01:57:53;;;;;;;;;;;;;;;16.75;nan;99016.06;5071754;28;20312;-89
2023/11/06 02:00:19;;;;;;;;;;;;;;;16.74;nan;99028.03;5064501;28;19924;-89
2023/11/06 02:02:46;;;;;;;;;;;;;;;16.76;nan;99034.69;5064256;28;20406;-90
2023/11/06 02:05:12;;;;;;;;;;;;;;;16.78;nan;99035.13;5066468;28;19921;-89
2023/11/06 02:07:38;;;;;;;;;;;;;;;16.80;nan;99051.03;5063860;28;19923;-89
2023/11/06 02:10:03;;;;;;;;;;;;;;;16.79;nan;99047.53;5065134;28;19916;-88
2023/11/06 02:12:31;;;;;;;;;;;;;;;16.73;nan;99042.66;5067967;28;20428;-89
2023/11/06 02:14:57;;;;;;;;;;;;;;;16.73;nan;99045.38;5068597;28;19916;-88
2023/11/06 02:17:22;;;;;;;;;;;;;;;16.71;nan;99050.31;5062252;28;19923;-90
2023/11/06 02:19:48;;;;;;;;;;;;;;;16.75;nan;99057.44;5067416;28;19916;-89
2023/11/06 02:22:20;;;;;;;;;;;;;;;16.82;nan;99075.84;5063175;28;20374;-90
2023/11/06 02:24:47;;;;;;;;;;;;;;;16.78;nan;99072.22;5058991;28;20005;-89
2023/11/06 02:27:14;;;;;;;;;;;;;;;16.75;nan;99076.38;5065512;28;19946;-89
2023/11/06 02:29:39;;;;;;;;;;;;;;;16.78;nan;99083.03;5063350;28;19927;-89
2023/11/06 02:32:04;;;;;;;;;;;;;;;16.73;nan;99084.03;5072019;28;19924;-89
2023/11/06 02:34:30;;;;;;;;;;;;;;;16.79;nan;99087.31;5068649;28;19925;-89
2023/11/06 02:36:55;;;;;;;;;;;;;;;16.78;nan;99097.34;5074165;28;19931;-89
2023/11/06 02:39:21;;;;;;;;;;;;;;;16.85;nan;99107.63;5071045;28;19916;-89
2023/11/06 02:41:47;;;;;;;;;;;;;;;16.80;nan;99102.41;5068004;28;19916;-89
2023/11/06 02:44:12;;;;;;;;;;;;;;;16.76;nan;99115.81;5068828;28;20232;-90
2023/11/06 02:46:38;;;;;;;;;;;;;;;16.74;nan;99120.75;5069970;28;19921;-89
2023/11/06 02:49:03;;;;;;;;;;;;;;;16.68;nan;99129.38;5065247;28;20292;-89
2023/11/06 02:51:29;;;;;;;;;;;;;;;16.61;nan;99133.38;5070039;28;19967;-89
2023/11/06 02:53:54;;;;;;;;;;;;;;;16.62;nan;99132.25;5068063;28;20387;-89
2023/11/06 02:56:20;;;;;;;;;;;;;;;16.63;nan;99146.56;5070165;28;19920;-88
2023/11/06 02:58:45;;;;;;;;;;;;;;;16.66;nan;99145.91;5064855;28;20566;-88
2023/11/06 03:01:12;;;;;;;;;;;;;;;16.71;nan;99163.91;5068092;28;20007;-93
2023/11/06 03:03:37;;;;;;;;;;;;;;;16.63;nan;99152.75;5066407;28;19921;-89
2023/11/06 03:06:02;;;;;;;;;;;;;;;16.60;nan;99166.94;5068968;28;19920;-89
2023/11/06 03:08:28;;;;;;;;;;;;;;;16.64;nan;99161.66;5066940;28;19916;-89
2023/11/06 03:10:53;;;;;;;;;;;;;;;16.63;nan;99168.97;5072697;28;19971;-90
2023/11/06 03:13:19;;;;;;;;;;;;;;;16.60;nan;99164.22;5067484;28;20019;-88
2023/11/06 03:15:44;;;;;;;;;;;;;;;16.67;nan;99181.88;5066857;28;19997;-88
2023/11/06 03:18:09;;;;;;;;;;;;;;;16.70;nan;99195.56;5064108;28;19932;-89
2023/11/06 03:20:35;;;;;;;;;;;;;;;16.68;nan;99188.88;5068641;28;20016;-89
2023/11/06 03:23:01;;;;;;;;;;;;;;;16.70;nan;99192.06;5069002;28;19923;-88
2023/11/06 03:25:26;;;;;;;;;;;;;;;16.73;nan;99207.63;5069654;28;19916;-90
2023/11/06 03:27:51;;;;;;;;;;;;;;;16.68;nan;99205.09;5065914;28;19924;-89
2023/11/06 03:30:16;;;;;;;;;;;;;;;16.66;nan;99208.09;5069676;28;19924;-88
2023/11/06 03:32:43;;;;;;;;;;;;;;;16.65;nan;99211.91;5070050;28;19923;-88
2023/11/06 03:35:08;;;;;;;;;;;;;;;16.67;nan;99219.72;5068956;28;19916;-89
2023/11/06 03:37:33;;;;;;;;;;;;;;;16.71;nan;99220.69;5062438;28;20208;-88
2023/11/06 03:39:59;;;;;;;;;;;;;;;16.72;nan;99223.06;5073285;28;19920;-90
2023/11/06 03:42:24;;;;;;;;;;;;;;;16.79;nan;99230.66;5070191;28;20360;-88
2023/11/06 03:44:49;;;;;;;;;;;;;;;16.80;nan;99226.84;5063707;28;19916;-89
2023/11/06 03:47:15;;;;;;;;;;;;;;;16.82;nan;99233.50;5065207;28;19924;-89
2023/11/06 03:49:40;;;;;;;;;;;;;;;16.86;nan;99230.94;5064953;28;20394;-89
2023/11/06 03:52:11;;;;;;;;;;;;;;;16.86;nan;99239.03;5063486;28;19921;-91
2023/11/06 03:54:37;;;;;;;;;;;;;;;16.78;nan;99237.19;5067460;28;19928;-89
2023/11/06 03:57:03;;;;;;;;;;;;;;;16.77;nan;99241.00;5073064;28;19916;-87
2023/11/06 03:59:28;;;;;;;;;;;;;;;16.77;nan;99249.13;5066818;28;19921;-90
2023/11/06 04:01:54;;;;;;;;;;;;;;;16.79;nan;99255.00;5068609;28;20616;-89
2023/11/06 04:04:19;;;;;;;;;;;;;;;16.81;nan;99269.00;5065971;28;20395;-89
2023/11/06 04:06:45;;;;;;;;;;;;;;;16.82;nan;99262.47;5065019;28;19954;-89
2023/11/06 04:09:10;;;;;;;;;;;;;;;16.82;nan;99279.47;5068910;28;20383;-89
2023/11/06 04:11:35;;;;;;;;;;;;;;;16.85;nan;99278.03;5066608;28;19935;-89
2023/11/06 04:14:01;;;;;;;;;;;;;;;16.81;nan;99279.81;5066421;28;19916;-89
2023/11/06 04:16:26;;;;;;;;;;;;;;;16.77;nan;99300.50;5066299;28;19990;-89
2023/11/06 04:18:51;;;;;;;;;;;;;;;16.73;nan;99299.59;5067369;28;19920;-89
2023/11/06 04:21:17;;;;;;;;;;;;;;;16.76;nan;99298.94;5068933;28;20372;-89
2023/11/06 04:23:42;;;;;;;;;;;;;;;16.75;nan;99302.75;5066517;28;20435;-89
2023/11/06 04:26:08;;;;;;;;;;;;;;;16.67;nan;99301.66;5067031;28;19920;-89
2023/11/06 04:28:33;;;;;;;;;;;;;;;16.67;nan;99300.84;5061881;28;19921;-89
2023/11/06 04:30:59;;;;;;;;;;;;;;;16.66;nan;99305.44;5070056;28;19966;-90
2023/11/06 04:33:24;;;;;;;;;;;;;;;16.68;nan;99313.25;5066184;28;19977;-89
2023/11/06 04:35:50;;;;;;;;;;;;;;;16.70;nan;99316.47;5060816;28;19927;-89
2023/11/06 04:38:15;;;;;;;;;;;;;;;16.65;nan;99324.69;5062288;28;20007;-89
2023/11/06 04:40:40;;;;;;;;;;;;;;;16.66;nan;99331.69;5067762;28;19917;-89
2023/11/06 04:43:06;;;;;;;;;;;;;;;16.70;nan;99338.09;5066432;28;19917;-89
2023/11/06 04:45:31;;;;;;;;;;;;;;;16.74;nan;99342.53;5067951;28;19923;-89
2023/11/06 04:47:57;;;;;;;;;;;;;;;16.70;nan;99348.91;5069632;28;19924;-90
2023/11/06 04:50:22;;;;;;;;;;;;;;;16.71;nan;99351.28;5067878;28;19960;-89
2023/11/06 04:52:47;;;;;;;;;;;;;;;16.71;nan;99351.28;5068930;28;20376;-90
2023/11/06 04:55:13;;;;;;;;;;;;;;;16.75;nan;99359.56;5068746;28;19924;-90
2023/11/06 04:57:38;;;;;;;;;;;;;;;16.74;nan;99368.78;5065165;28;19921;-89
2023/11/06 05:00:06;;;;;;;;;;;;;;;16.84;nan;99387.34;5065303;28;19928;-88
2023/11/06 05:02:31;;;;;;;;;;;;;;;16.79;nan;99382.13;5066703;28;19935;-89
2023/11/06 05:04:56;;;;;;;;;;;;;;;16.79;nan;99379.41;5066195;28;19917;-89
2023/11/06 05:07:21;;;;;;;;;;;;;;;16.75;nan;99390.09;5067016;28;19962;-89
2023/11/06 05:09:47;;;;;;;;;;;;;;;16.80;nan;99379.09;5062451;28;19917;-89
2023/11/06 05:12:12;;;;;;;;;;;;;;;16.79;nan;99391.03;5067368;28;20392;-89
2023/11/06 05:14:37;;;;;;;;;;;;;;;16.78;nan;99396.78;5060012;28;19917;-89
2023/11/06 05:17:03;;;;;;;;;;;;;;;16.80;nan;99399.94;5059989;28;20328;-90
2023/11/06 05:19:29;;;;;;;;;;;;;;;16.76;nan;99410.63;5061334;28;19938;-88
2023/11/06 05:21:55;;;;;;;;;;;;;;;16.76;nan;99418.72;5068257;28;19956;-88
2023/11/06 05:24:21;;;;;;;;;;;;;;;16.81;nan;99412.34;5064737;28;19964;-89
2023/11/06 05:26:47;;;;;;;;;;;;;;;16.82;nan;99427.47;5067196;28;19923;-89
2023/11/06 05:29:12;;;;;;;;;;;;;;;16.88;nan;99431.59;5067915;28;19916;-90
2023/11/06 05:31:37;;;;;;;;;;;;;;;16.85;nan;99443.84;5066650;28;19920;-89
2023/11/06 05:34:03;;;;;;;;;;;;;;;16.79;nan;99449.75;5073641;28;19916;-89
2023/11/06 05:36:29;;;;;;;;;;;;;;;16.79;nan;99450.53;5067558;28;19916;-88
2023/11/06 05:38:55;;;;;;;;;;;;;;;16.85;nan;99456.56;5068771;28;19978;-89
2023/11/06 05:41:20;;;;;;;;;;;;;;;16.87;nan;99465.16;5069077;28;20384;-89
2023/11/06 05:43:46;;;;;;;;;;;;;;;16.82;nan;99473.44;5073533;28;20389;-89
2023/11/06 05:46:11;;;;;;;;;;;;;;;16.79;nan;99458.66;5066307;28;20319;-89
2023/11/06 05:48:36;;;;;;;;;;;;;;;16.81;nan;99477.25;5064412;28;19969;-89
2023/11/06 05:51:02;;;;;;;;;;;;;;;16.80;nan;99470.28;5064411;28;20280;-89
2023/11/06 05:53:28;;;;;;;;;;;;;;;16.79;nan;99476.78;5062097;28;20418;-89
2023/11/06 05:55:53;;;;;;;;;;;;;;;16.76;nan;99488.25;5062017;28;19924;-89
2023/11/06 05:58:18;;;;;;;;;;;;;;;16.75;nan;99487.47;5061082;28;19924;-89
2023/11/06 06:00:45;;;;;;;;;;;;;;;16.76;nan;99494.47;5063823;28;20042;-90
2023/11/06 06:03:11;;;;;;;;;;;;;;;16.73;nan;99492.41;5063591;28;19916;-89
2023/11/06 06:05:36;;;;;;;;;;;;;;;16.70;nan;99495.75;5069239;28;19939;-89
2023/11/06 06:08:02;;;;;;;;;;;;;;;16.71;nan;99510.06;5065875;28;19970;-88
2023/11/06 06:10:27;;;;;;;;;;;;;;;16.71;nan;99510.06;5066476;28;19978;-88
2023/11/06 06:12:52;;;;;;;;;;;;;;;16.69;nan;99517.69;5069410;28;19977;-88
2023/11/06 06:15:18;;;;;;;;;;;;;;;16.66;nan;99523.69;5067742;28;20755;-89
2023/11/06 06:17:43;;;;;;;;;;;;;;;16.63;nan;99534.03;5068289;28;20407;-89
2023/11/06 06:20:12;;;;;;;;;;;;;;;16.62;nan;99528.94;5067454;28;19916;-89
2023/11/06 06:22:41;;;;;;;;;;;;;;;16.62;nan;99537.06;5064724;28;19955;-88
2023/11/06 06:25:07;;;;;;;;;;;;;;;16.60;nan;99545.50;5067480;28;19917;-90
2023/11/06 06:27:32;;;;;;;;;;;;;;;16.56;nan;99551.84;5070511;28;19913;-89
2023/11/06 06:29:58;;;;;;;;;;;;;;;16.59;nan;99559.34;5067319;28;19917;-89
2023/11/06 06:32:23;;;;;;;;;;;;;;;16.59;nan;99554.72;5071790;28;19921;-88
2023/11/06 06:34:48;;;;;;;;;;;;;;;16.55;nan;99566.50;5069148;28;19939;-89
2023/11/06 06:37:14;;;;;;;;;;;;;;;16.61;nan;99563.31;5066735;28;20949;-89
2023/11/06 06:39:39;;;;;;;;;;;;;;;16.59;nan;99570.16;5060816;28;20392;-89
2023/11/06 06:42:04;;;;;;;;;;;;;;;16.62;nan;99558.69;5067706;28;19916;-89
2023/11/06 06:44:30;;;;;;;;;;;;;;;16.70;nan;99576.09;5065857;28;19925;-89
2023/11/06 06:46:57;;;;;;;;;;;;;;;16.68;nan;99581.00;5069076;28;20417;-89
2023/11/06 06:49:23;;;;;;;;;;;;;;;16.72;nan;99585.47;5071734;28;19920;-89
2023/11/06 06:51:48;;;;;;;;;;;;;;;16.66;nan;99592.09;5068911;28;19925;-89
2023/11/06 06:54:13;;;;;;;;;;;;;;;16.67;nan;99599.13;5065859;28;20320;-89
2023/11/06 06:56:39;;;;;;;;;;;;;;;16.69;nan;99601.50;5072813;28;19924;-88
2023/11/06 06:59:04;;;;;;;;;;;;;;;16.75;nan;99617.28;5068652;28;19925;-89
2023/11/06 07:01:29;;;;;;;;;;;;;;;16.74;nan;99609.50;5065476;28;19956;-88
2023/11/06 07:03:54;;;;;;;;;;;;;;;16.74;nan;99614.91;5067952;28;20456;-89
2023/11/06 07:06:20;;;;;;;;;;;;;;;16.74;nan;99615.69;5068253;28;19923;-89
2023/11/06 07:08:45;;;;;;;;;;;;;;;16.73;nan;99613.31;5067963;28;19983;-89
2023/11/06 07:11:10;;;;;;;;;;;;;;;16.81;nan;99609.81;5070567;28;20290;-89
2023/11/06 07:13:36;;;;;;;;;;;;;;;16.84;nan;99620.00;5063403;28;20011;-89
2023/11/06 07:16:01;;;;;;;;;;;;;;;16.87;nan;99619.34;5071482;28;20037;-89
2023/11/06 07:18:27;;;;;;;;;;;;;;;16.80;nan;99614.44;5072419;28;19920;-90
2023/11/06 07:20:52;;;;;;;;;;;;;;;16.83;nan;99623.81;5072079;28;19928;-88
2023/11/06 07:23:17;;;;;;;;;;;;;;;16.80;nan;99619.84;5071874;28;19920;-88
2023/11/06 07:25:43;;;;;;;;;;;;;;;16.86;nan;99629.38;5069145;28;19917;-89
2023/11/06 07:28:08;;;;;;;;;;;;;;;16.92;nan;99636.25;5066110;28;19936;-88
2023/11/06 07:30:33;;;;;;;;;;;;;;;16.95;nan;99632.13;5067407;28;19924;-89
2023/11/06 07:32:59;;;;;;;;;;;;;;;16.95;nan;99636.72;5071304;28;20459;-89
2023/11/06 07:35:25;;;;;;;;;;;;;;;17.00;nan;99633.84;5067879;28;19924;-89
2023/11/06 07:37:51;;;;;;;;;;;;;;;17.03;nan;99642.13;5069642;28;19986;-89
2023/11/06 07:40:16;;;;;;;;;;;;;;;17.12;nan;99639.44;5069684;28;20404;-88
2023/11/06 07:42:41;;;;;;;;;;;;;;;17.17;nan;99645.50;5071626;28;19916;-89
2023/11/06 07:45:10;;;;;;;;;;;;;;;17.17;nan;99642.78;5070683;28;20291;-90
2023/11/06 07:47:36;;;;;;;;;;;;;;;17.30;nan;99654.56;5082604;28;20398;-90
2023/11/06 07:50:02;;;;;;;;;;;;;;;17.38;nan;99655.66;5071870;28;19958;-90
2023/11/06 07:52:30;;;;;;;;;;;;;;;17.49;nan;99659.66;5070553;28;20420;-90
2023/11/06 07:54:56;;;;;;;;;;;;;;;17.47;nan;99665.38;5072163;28;19916;-90
2023/11/06 07:57:21;;;;;;;;;;;;;;;17.51;nan;99674.47;5070766;28;19931;-90
2023/11/06 07:59:47;;;;;;;;;;;;;;;17.56;nan;99670.78;5069391;28;19916;-88
2023/11/06 08:02:12;;;;;;;;;;;;;;;17.62;nan;99676.84;5069517;28;19969;-88
2023/11/06 08:04:38;;;;;;;;;;;;;;;17.71;nan;99683.88;5066880;28;19951;-89
2023/11/06 08:07:04;;;;;;;;;;;;;;;17.77;nan;99673.66;5068809;28;19917;-89
2023/11/06 08:09:29;;;;;;;;;;;;;;;17.83;nan;99698.69;5067717;28;19924;-88
2023/11/06 08:11:55;;;;;;;;;;;;;;;17.89;nan;99702.81;5071512;28;19978;-89
2023/11/06 08:14:20;;;;;;;;;;;;;;;17.89;nan;99691.97;5068715;28;20381;-88
2023/11/06 08:16:45;;;;;;;;;;;;;;;17.92;nan;99699.44;5071561;28;19913;-89
2023/11/06 08:19:11;;;;;;;;;;;;;;;17.91;nan;99701.38;5072055;28;19916;-88
2023/11/06 08:21:36;;;;;;;;;;;;;;;17.96;nan;99703.13;5070632;28;19922;-89
2023/11/06 08:24:01;;;;;;;;;;;;;;;18.02;nan;99707.25;5071564;28;19916;-89
2023/11/06 08:26:27;;;;;;;;;;;;;;;18.15;nan;99721.75;5068107;28;20332;-89
2023/11/06 08:28:52;;;;;;;;;;;;;;;18.23;nan;99719.00;5071340;28;19924;-90
2023/11/06 08:31:18;;;;;;;;;;;;;;;18.31;nan;99729.03;5066704;28;20380;-90
2023/11/06 08:33:43;;;;;;;;;;;;;;;18.35;nan;99738.09;5072263;28;20376;-88
2023/11/06 08:36:10;;;;;;;;;;;;;;;18.38;nan;99726.59;5069072;28;19999;-88
2023/11/06 08:38:53;;;;;;;;;;;;;;;18.34;nan;99722.94;5066643;28;20110;-88
2023/11/06 08:41:19;;;;;;;;;;;;;;;18.42;nan;99748.44;5068367;28;19920;-89
2023/11/06 08:43:44;;;;;;;;;;;;;;;18.47;nan;99737.41;5067466;28;19947;-89
2023/11/06 08:46:10;;;;;;;;;;;;;;;18.53;nan;99738.03;5062987;28;20007;-89
2023/11/06 08:48:35;;;;;;;;;;;;;;;18.64;nan;99752.84;5068635;28;19924;-90
2023/11/06 08:51:01;;;;;;;;;;;;;;;18.69;nan;99768.97;5068466;28;19921;-88
2023/11/06 08:53:26;;;;;;;;;;;;;;;18.81;nan;99766.34;5068919;28;20468;-88
2023/11/06 08:55:51;;;;;;;;;;;;;;;18.93;nan;99771.88;5069605;28;19923;-89
2023/11/06 08:58:16;;;;;;;;;;;;;;;18.91;nan;99774.13;5069627;28;19956;-89
2023/11/06 09:00:43;;;;;;;;;;;;;;;18.98;nan;99779.81;5072651;28;19951;-89
2023/11/06 09:03:12;;;;;;;;;;;;;;;19.13;nan;99788.53;5069545;28;19917;-91
2023/11/06 09:05:38;;;;;;;;;;;;;;;19.21;nan;99788.50;5068880;28;19932;-89
2023/11/06 09:08:03;;;;;;;;;;;;;;;19.22;nan;99787.38;5064121;28;19917;-88
2023/11/06 09:10:29;;;;;;;;;;;;;;;19.22;nan;99797.44;5069963;28;19916;-88
2023/11/06 09:12:55;;;;;;;;;;;;;;;19.16;nan;99810.41;5073124;28;19928;-89
2023/11/06 09:15:21;;;;;;;;;;;;;;;19.01;nan;99795.44;5069559;28;19921;-89
2023/11/06 09:17:46;;;;;;;;;;;;;;;18.85;nan;99809.91;5070016;28;19958;-88
2023/11/06 09:20:12;;;;;;;;;;;;;;;18.79;nan;99812.00;5067840;28;19923;-89
2023/11/06 09:22:37;;;;;;;;;;;;;;;18.74;nan;99812.19;5069610;28;20321;-88
2023/11/06 09:25:05;;;;;;;;;;;;;;;18.65;nan;99819.56;5070110;28;20367;-90
2023/11/06 09:27:33;;;;;;;;;;;;;;;18.66;nan;99815.72;5068564;28;19920;-89
2023/11/06 09:29:58;;;;;;;;;;;;;;;18.75;nan;99824.63;5063866;28;19916;-90
2023/11/06 09:32:23;;;;;;;;;;;;;;;18.95;nan;99831.25;5063869;28;20381;-90
2023/11/06 09:34:49;;;;;;;;;;;;;;;19.07;nan;99830.59;5065866;28;20388;-89
2023/11/06 09:37:14;;;;;;;;;;;;;;;19.15;nan;99846.03;5069077;28;19925;-88
2023/11/06 09:39:43;;;;;;;;;;;;;;;19.12;nan;99841.25;5068646;28;20027;-89
2023/11/06 09:42:08;;;;;;;;;;;;;;;19.02;nan;99837.75;5069887;28;20011;-89
2023/11/06 09:44:34;;;;;;;;;;;;;;;18.97;nan;99843.38;5070527;28;20003;-90
2023/11/06 09:47:01;;;;;;;;;;;;;;;18.91;nan;99846.63;5068994;28;19920;-89
2023/11/06 09:49:31;;;;;;;;;;;;;;;18.95;nan;99861.13;5068496;28;19924;-87
2023/11/06 09:51:58;;;;;;;;;;;;;;;18.89;nan;99865.16;5069641;28;19921;-89
2023/11/06 09:54:26;;;;;;;;;;;;;;;18.86;nan;99876.66;5073837;28;19920;-89
2023/11/06 09:56:53;;;;;;;;;;;;;;;18.87;nan;99873.63;5070410;28;19956;-89
2023/11/06 09:59:19;;;;;;;;;;;;;;;18.86;nan;99865.78;5066689;28;20710;-90
2023/11/06 10:01:44;;;;;;;;;;;;;;;18.86;nan;99871.22;5066653;28;19962;-90
2023/11/06 10:04:09;;;;;;;;;;;;;;;18.82;nan;99872.97;5068113;28;19917;-90
2023/11/06 10:06:35;;;;;;;;;;;;;;;18.81;nan;99885.75;5068788;28;19923;-89
2023/11/06 10:09:18;;;;;;;;;;;;;;;18.77;nan;99884.81;5069208;28;19923;-90
2023/11/06 10:11:43;;;;;;;;;;;;;;;18.81;nan;99893.09;5048351;28;19968;-88
2023/11/06 10:14:08;;;;;;;;;;;;;;;18.80;nan;99895.00;5069921;28;20375;-89
2023/11/06 10:16:34;;;;;;;;;;;;;;;18.83;nan;99882.72;5066134;28;19916;-90
2023/11/06 10:19:09;;;;;;;;;;;;;;;18.92;nan;99891.63;5070398;28;19927;-89
2023/11/06 10:21:35;;;;;;;;;;;;;;;19.03;nan;99890.16;5067061;28;19927;-88
2023/11/06 10:24:01;;;;;;;;;;;;;;;19.12;nan;99899.06;5064924;28;20280;-88
2023/11/06 10:26:28;;;;;;;;;;;;;;;19.07;nan;99903.88;5062022;28;19963;-90
2023/11/06 10:29:13;;;;;;;;;;;;;;;19.10;nan;99908.66;5069073;28;20007;-87
2023/11/06 10:31:44;;;;;;;;;;;;;;;19.13;nan;99908.00;5067244;28;19928;-90
2023/11/06 10:34:26;;;;;;;;;;;;;;;19.12;nan;99909.13;5067426;28;20395;-89
2023/11/06 10:37:00;;;;;;;;;;;;;;;19.19;nan;99910.19;5069182;28;19923;-89
2023/11/06 10:39:26;;;;;;;;;;;;;;;19.26;nan;99917.88;5064252;28;20407;-89
2023/11/06 10:41:59;;;;;;;;;;;;;;;19.31;nan;99918.47;5068696;28;19951;-90
2023/11/06 10:44:24;;;;;;;;;;;;;;;19.27;nan;99922.97;5069954;28;19943;-90
2023/11/06 10:46:50;;;;;;;;;;;;;;;19.26;nan;99936.88;5064974;28;19986;-90
2023/11/06 10:49:23;;;;;;;;;;;;;;;19.24;nan;99925.53;5068493;28;19920;-87
2023/11/06 10:51:52;;;;;;;;;;;;;;;19.20;nan;99938.94;5070702;28;19921;-90
2023/11/06 10:54:19;;;;;;;;;;;;;;;19.24;nan;99934.50;5073154;28;19923;-89
2023/11/06 10:56:45;;;;;;;;;;;;;;;19.23;nan;99937.53;5069179;28;19927;-90
2023/11/06 10:59:13;;;;;;;;;;;;;;;19.31;nan;99940.19;5067216;28;19996;-89
2023/11/06 11:01:38;;;;;;;;;;;;;;;19.33;nan;99946.09;5070701;28;19970;-90
2023/11/06 11:04:08;;;;;;;;;;;;;;;19.30;nan;99951.38;5071022;28;19917;-88
2023/11/06 11:06:35;;;;;;;;;;;;;;;19.38;nan;99960.63;5066946;28;20380;-89
2023/11/06 11:09:01;;;;;;;;;;;;;;;19.36;nan;99952.78;5072176;28;19920;-89
2023/11/06 11:11:27;;;;;;;;;;;;;;;19.37;nan;99956.31;5070166;28;19925;-89
2023/11/06 11:13:52;;;;;;;;;;;;;;;19.33;nan;99959.69;5067484;28;19955;-89
2023/11/06 11:16:41;;;;;;;;;;;;;;;19.30;nan;99962.25;5064840;28;19960;-89
2023/11/06 11:19:20;;;;;;;;;;;;;;;19.27;nan;99973.78;5074893;28;19987;-89
2023/11/06 11:22:03;;;;;;;;;;;;;;;19.30;nan;99967.69;5066477;28;20187;-89
2023/11/06 11:24:54;;;;;;;;;;;;;;;19.19;nan;99990.88;5064372;28;19925;-88
2023/11/06 11:27:23;;;;;;;;;;;;;;;19.09;nan;99988.53;5066416;28;20058;-87
2023/11/06 11:29:56;;;;;;;;;;;;;;;19.05;nan;99987.56;5069999;28;19962;-89
2023/11/06 11:32:27;;;;;;;;;;;;;;;19.07;nan;99990.75;5065906;28;19928;-89
2023/11/06 11:34:56;;;;;;;;;;;;;;;19.02;nan;99997.13;5065496;28;19924;-89
2023/11/06 11:37:28;;;;;;;;;;;;;;;18.94;nan;100004.19;5066705;28;20007;-90
2023/11/06 11:39:56;;;;;;;;;;;;;;;18.93;nan;100010.75;5069507;28;20494;-89
2023/11/06 11:42:21;;;;;;;;;;;;;;;19.02;nan;100011.50;5067225;28;19916;-89
2023/11/06 11:44:59;;;;;;;;;;;;;;;19.01;nan;100015.34;5069318;28;19916;-90
2023/11/06 11:47:25;;;;;;;;;;;;;;;18.96;nan;100010.09;5065225;28;19921;-88
2023/11/06 11:49:52;;;;;;;;;;;;;;;19.02;nan;100008.78;5065227;28;20768;-91
2023/11/06 11:52:23;;;;;;;;;;;;;;;19.01;nan;100026.19;5064421;28;19928;-89
2023/11/06 11:54:49;;;;;;;;;;;;;;;18.99;nan;100033.06;5062045;28;19920;-90
2023/11/06 11:57:14;;;;;;;;;;;;;;;18.89;nan;100030.72;5063597;28;19917;-89
2023/11/06 11:59:46;;;;;;;;;;;;;;;18.86;nan;100034.06;5068497;28;19924;-89
2023/11/06 12:02:27;;;;;;;;;;;;;;;18.80;nan;100030.69;5063472;28;19921;-89
2023/11/06 12:04:57;;;;;;;;;;;;;;;18.82;nan;100038.53;5066846;28;19924;-88
2023/11/06 12:07:25;;;;;;;;;;;;;;;18.76;nan;100037.09;5059243;28;19916;-88
2023/11/06 12:09:51;;;;;;;;;;;;;;;18.76;nan;100034.38;5064959;28;20265;-88
2023/11/06 12:12:20;;;;;;;;;;;;;;;18.89;nan;100047.78;5059736;28;19952;-89
2023/11/06 12:14:46;;;;;;;;;;;;;;;18.93;nan;100048.75;5059875;28;19964;-88
2023/11/06 12:17:11;;;;;;;;;;;;;;;19.00;nan;100040.91;5061711;28;20054;-88
2023/11/06 12:19:42;;;;;;;;;;;;;;;19.01;nan;100047.91;5068118;28;19956;-89
2023/11/06 12:22:08;;;;;;;;;;;;;;;19.07;nan;100047.78;5060320;28;19924;-89
2023/11/06 12:24:45;;;;;;;;;;;;;;;19.08;nan;100043.94;5064750;28;19916;-89
2023/11/06 12:27:11;;;;;;;;;;;;;;;19.08;nan;100052.09;5064154;28;19925;-89
2023/11/06 12:29:36;;;;;;;;;;;;;;;19.21;nan;100053.81;5066159;28;19920;-89
2023/11/06 12:32:17;;;;;;;;;;;;;;;19.34;nan;100055.53;5065989;28;19920;-88
2023/11/06 12:34:42;;;;;;;;;;;;;;;19.37;nan;100054.88;5070924;28;19950;-87
2023/11/06 12:37:07;;;;;;;;;;;;;;;19.35;nan;100062.56;5066702;28;19916;-88
2023/11/06 12:39:34;;;;;;;;;;;;;;;19.38;nan;100066.56;5068009;28;20287;-88
2023/11/06 12:42:00;;;;;;;;;;;;;;;19.32;nan;100066.72;5067177;28;19916;-89
2023/11/06 12:44:36;;;;;;;;;;;;;;;19.27;nan;100066.13;5067877;28;20478;-87
2023/11/06 12:47:04;;;;;;;;;;;;;;;19.21;nan;100065.50;5068335;28;19966;-90
2023/11/06 12:49:46;;;;;;;;;;;;;;;19.42;nan;100076.47;5068541;28;19923;-90
2023/11/06 12:52:14;;;;;;;;;;;;;;;19.83;nan;100073.16;5066357;28;19925;-89
2023/11/06 12:54:40;;;;;;;;;;;;;;;20.34;nan;100078.69;5074117;28;19924;-89
2023/11/06 12:57:10;;;;;;;;;;;;;;;20.75;nan;100081.47;5066480;28;19923;-89
2023/11/06 12:59:35;;;;;;;;;;;;;;;21.06;nan;100069.38;5070118;28;19920;-90
2023/11/06 13:02:02;;;;;;;;;;;;;;;21.60;nan;100086.47;5064195;28;20299;-89
2023/11/06 13:04:29;;;;;;;;;;;;;;;22.16;nan;100080.53;5065085;28;19923;-90